createdAt,value
2019-01-25T00:00:24.580Z,-2.86
2019-01-25T00:02:53.194Z,-2.86
2019-01-25T00:05:24.587Z,-2.87
2019-01-25T00:07:53.006Z,-2.89
2019-01-25T00:10:21.399Z,-2.93
2019-01-25T00:12:49.789Z,-2.97
2019-01-25T00:15:18.240Z,-3.01
2019-01-25T00:17:46.775Z,-7.41
2019-01-25T00:20:15.253Z,-3.08
2019-01-25T00:22:43.688Z,-3.09
2019-01-25T00:25:12.101Z,-3.12
2019-01-25T00:27:40.625Z,-7.87
2019-01-25T00:30:14.570Z,-3.18
2019-01-25T00:32:42.928Z,-3.24
2019-01-25T00:35:11.310Z,-3.27
2019-01-25T00:37:39.858Z,-3.26
2019-01-25T00:40:11.766Z,-3.25
2019-01-25T00:42:41.729Z,-3.30
2019-01-25T00:45:11.050Z,-3.31
2019-01-25T00:47:39.325Z,-3.31
2019-01-25T00:50:19.395Z,-3.32
2019-01-25T00:52:48.104Z,-3.33
2019-01-25T00:55:16.565Z,-3.40
2019-01-25T00:57:45.108Z,-3.41
2019-01-25T01:00:16.842Z,-3.43
2019-01-25T01:02:45.162Z,-3.47
2019-01-25T01:05:13.675Z,-3.53
2019-01-25T01:07:42.019Z,-3.50
2019-01-25T01:10:14.192Z,-3.53
2019-01-25T01:12:41.465Z,-3.49
2019-01-25T01:15:12.429Z,-3.45
2019-01-25T01:17:40.681Z,-3.44
2019-01-25T01:20:14.584Z,-3.45
2019-01-25T01:22:43.066Z,-3.45
2019-01-25T01:25:11.654Z,-3.48
2019-01-25T01:27:39.945Z,-3.45
2019-01-25T01:30:11.524Z,-3.43
2019-01-25T01:32:42.283Z,-3.42
2019-01-25T01:35:10.898Z,-3.39
2019-01-25T01:37:39.217Z,-3.39
2019-01-25T01:40:13.997Z,-3.34
2019-01-25T01:42:42.421Z,-3.31
2019-01-25T01:45:10.840Z,-3.29
2019-01-25T01:47:39.299Z,-3.28
2019-01-25T01:50:10.596Z,-3.27
2019-01-25T01:52:39.102Z,-3.30
2019-01-25T01:55:07.392Z,-3.28
2019-01-25T01:57:37.674Z,-3.23
2019-01-25T02:00:09.447Z,-3.20
2019-01-25T02:02:37.837Z,-3.18
2019-01-25T02:05:08.466Z,-3.16
2019-01-25T02:07:37.014Z,-3.14
2019-01-25T02:10:11.930Z,-3.11
2019-01-25T02:12:40.569Z,-3.11
2019-01-25T02:15:11.405Z,-3.10
2019-01-25T02:17:39.841Z,-3.10
2019-01-25T02:20:14.299Z,-3.10
2019-01-25T02:22:42.823Z,-3.08
2019-01-25T02:25:11.356Z,-3.09
2019-01-25T02:27:40.083Z,-3.12
2019-01-25T02:30:12.015Z,-3.16
2019-01-25T02:32:40.532Z,-3.18
2019-01-25T02:35:11.725Z,-3.20
2019-01-25T02:37:41.867Z,-3.25
2019-01-25T02:40:13.025Z,-3.31
2019-01-25T02:42:41.339Z,-3.35
2019-01-25T02:45:11.609Z,-3.39
2019-01-25T02:47:40.020Z,-3.41
2019-01-25T02:50:19.387Z,-3.44
2019-01-25T02:52:47.659Z,-3.44
2019-01-25T02:55:16.801Z,-3.46
2019-01-25T02:57:45.376Z,-3.48
2019-01-25T03:00:21.931Z,-3.49
2019-01-25T03:02:50.277Z,-3.47
2019-01-25T03:05:19.992Z,-3.45
2019-01-25T03:07:48.645Z,-3.42
2019-01-25T03:10:17.964Z,-3.44
2019-01-25T03:12:46.290Z,-3.40
2019-01-25T03:15:20.458Z,-3.39
2019-01-25T03:17:48.767Z,-3.38
2019-01-25T03:20:17.198Z,-3.36
2019-01-25T03:22:45.550Z,-3.37
2019-01-25T03:25:16.522Z,-3.33
2019-01-25T03:27:44.762Z,-3.34
2019-01-25T03:30:18.175Z,-3.36
2019-01-25T03:32:46.437Z,-3.35
2019-01-25T03:35:16.070Z,-3.31
2019-01-25T03:37:44.345Z,-3.34
2019-01-25T03:40:23.420Z,-3.34
2019-01-25T03:42:51.856Z,-3.33
2019-01-25T03:45:20.079Z,-3.34
2019-01-25T03:47:48.364Z,-3.29
2019-01-25T03:50:22.843Z,-3.27
2019-01-25T03:52:51.127Z,-3.24
2019-01-25T03:55:19.409Z,-3.22
2019-01-25T03:57:47.676Z,-3.18
2019-01-25T04:00:21.259Z,-3.20
2019-01-25T04:02:49.546Z,-3.22
2019-01-25T04:05:18.448Z,-3.19
2019-01-25T04:07:47.178Z,-3.18
2019-01-25T04:10:17.696Z,-3.15
2019-01-25T04:12:45.965Z,-3.15
2019-01-25T04:15:19.810Z,-3.16
2019-01-25T04:17:48.103Z,-3.14
2019-01-25T04:20:18.210Z,-3.15
2019-01-25T04:22:46.523Z,-3.12
2019-01-25T04:25:17.483Z,-3.12
2019-01-25T04:27:45.831Z,-3.12
2019-01-25T04:30:20.179Z,-3.12
2019-01-25T04:32:48.483Z,-3.13
2019-01-25T04:35:16.741Z,-3.09
2019-01-25T04:37:45.029Z,-3.08
2019-01-25T04:40:15.364Z,-3.08
2019-01-25T04:42:43.677Z,-3.07
2019-01-25T04:45:17.137Z,-3.04
2019-01-25T04:47:45.516Z,-3.07
2019-01-25T04:50:22.250Z,-3.06
2019-01-25T04:52:50.575Z,-3.05
2019-01-25T04:55:23.919Z,-3.08
2019-01-25T04:57:52.193Z,-3.12
2019-01-25T05:00:23.171Z,-3.09
2019-01-25T05:03:01.153Z,-3.10
2019-01-25T05:05:29.519Z,-3.07
2019-01-25T05:08:12.778Z,-3.08
2019-01-25T05:10:43.997Z,-3.04
2019-01-25T05:13:12.268Z,-3.00
2019-01-25T05:15:40.564Z,-2.98
2019-01-25T05:18:08.819Z,-2.99
2019-01-25T05:20:37.084Z,-2.98
2019-01-25T05:23:07.523Z,-3.68
2019-01-25T05:25:35.770Z,-2.98
2019-01-25T05:28:09.861Z,-2.96
2019-01-25T05:30:38.246Z,-2.95
2019-01-25T05:33:06.512Z,-2.97
2019-01-25T05:35:36.224Z,-3.00
2019-01-25T05:38:04.561Z,-3.01
2019-01-25T05:40:33.020Z,-2.98
2019-01-25T05:43:01.325Z,-2.95
2019-01-25T05:45:29.611Z,-2.96
2019-01-25T05:47:57.961Z,-2.98
2019-01-25T05:50:26.230Z,-2.94
2019-01-25T05:52:54.497Z,-2.92
2019-01-25T05:55:23.060Z,-2.88
2019-01-25T05:57:53.160Z,-2.87
2019-01-25T06:00:38.594Z,-2.84
2019-01-25T06:03:15.121Z,-2.89
2019-01-25T06:05:43.697Z,-2.89
2019-01-25T06:08:29.469Z,-2.88
2019-01-25T06:10:59.146Z,-2.87
2019-01-25T06:13:27.458Z,-2.89
2019-01-25T06:15:55.855Z,-2.89
2019-01-25T06:18:24.185Z,-2.89
2019-01-25T06:20:53.925Z,-2.97
2019-01-25T06:23:22.193Z,-2.98
2019-01-25T06:25:57.758Z,-2.98
2019-01-25T06:28:26.026Z,-2.97
2019-01-25T06:30:54.434Z,-2.94
2019-01-25T06:33:22.782Z,-2.97
2019-01-25T06:35:51.035Z,-2.96
2019-01-25T06:38:19.328Z,-2.98
2019-01-25T06:40:47.604Z,-2.97
2019-01-25T06:43:15.921Z,-2.97
2019-01-25T06:45:44.176Z,-2.95
2019-01-25T06:48:12.478Z,-2.96
2019-01-25T06:50:40.753Z,-2.95
2019-01-25T06:53:09.040Z,-2.96
2019-01-25T06:55:38.969Z,-2.96
2019-01-25T06:58:08.893Z,-2.94
2019-01-25T07:00:45.125Z,-2.95
2019-01-25T07:03:13.409Z,-2.94
2019-01-25T07:05:41.784Z,-2.95
2019-01-25T07:08:11.722Z,-2.96
2019-01-25T07:10:39.966Z,-2.94
2019-01-25T07:13:08.246Z,-2.94
2019-01-25T07:15:36.513Z,-2.91
2019-01-25T07:18:04.822Z,-2.91
2019-01-25T07:20:33.086Z,-2.89
2019-01-25T07:23:01.353Z,-2.87
2019-01-25T07:25:29.629Z,-2.84
2019-01-25T07:27:57.923Z,-2.85
2019-01-25T07:30:26.191Z,-2.87
2019-01-25T07:32:54.484Z,-2.86
2019-01-25T07:35:22.746Z,-2.87
2019-01-25T07:37:51.022Z,-2.83
2019-01-25T07:40:19.316Z,-2.80
2019-01-25T07:42:47.829Z,-2.82
2019-01-25T07:45:16.235Z,-2.81
2019-01-25T07:47:44.493Z,-2.78
2019-01-25T07:50:13.093Z,-2.78
2019-01-25T07:52:41.400Z,-2.78
2019-01-25T07:55:12.165Z,-2.76
2019-01-25T07:57:40.505Z,-2.74
2019-01-25T08:00:11.578Z,-2.70
2019-01-25T08:02:39.961Z,-2.67
2019-01-25T08:05:10.631Z,-2.64
2019-01-25T08:07:39.329Z,-2.66
2019-01-25T08:10:14.169Z,-2.61
2019-01-25T08:12:42.584Z,-2.57
2019-01-25T08:15:20.261Z,-2.50
2019-01-25T08:17:48.810Z,-2.43
2019-01-25T08:20:17.254Z,-2.40
2019-01-25T08:22:45.841Z,-2.31
2019-01-25T08:25:15.214Z,-2.23
2019-01-25T08:27:43.573Z,-2.15
2019-01-25T08:30:20.874Z,-2.07
2019-01-25T08:32:49.202Z,-2.00
2019-01-25T08:35:17.470Z,-1.93
2019-01-25T08:37:45.832Z,-1.89
2019-01-25T08:40:16.761Z,-1.84
2019-01-25T08:42:45.069Z,-1.83
2019-01-25T08:45:15.257Z,-1.81
2019-01-25T08:47:43.673Z,-1.77
2019-01-25T08:50:25.830Z,-1.70
2019-01-25T08:52:54.153Z,-1.68
2019-01-25T08:55:22.430Z,-1.62
2019-01-25T08:57:50.826Z,-1.58
2019-01-25T09:00:26.376Z,-1.58
2019-01-25T09:02:54.671Z,-1.57
2019-01-25T09:05:22.946Z,-1.50
2019-01-25T09:07:51.211Z,-1.47
2019-01-25T09:10:21.523Z,-1.46
2019-01-25T09:12:49.784Z,-1.41
2019-01-25T09:15:32.620Z,-1.31
2019-01-25T09:18:00.882Z,-1.26
2019-01-25T09:20:29.178Z,-1.20
2019-01-25T09:22:57.442Z,-1.14
2019-01-25T09:25:25.711Z,-1.13
2019-01-25T09:27:54.000Z,-1.04
2019-01-25T09:30:24.608Z,-0.96
2019-01-25T09:32:52.934Z,-0.99
2019-01-25T09:35:21.202Z,-0.88
2019-01-25T09:37:49.914Z,-0.83
2019-01-25T09:40:21.982Z,-0.75
2019-01-25T09:42:50.685Z,-0.76
2019-01-25T09:45:19.050Z,-0.69
2019-01-25T09:47:47.313Z,-0.68
2019-01-25T09:50:18.017Z,-0.61
2019-01-25T09:52:46.292Z,-0.76
2019-01-25T09:55:17.099Z,-0.72
2019-01-25T09:57:45.393Z,-0.74
2019-01-25T10:00:16.933Z,-0.78
2019-01-25T10:02:45.201Z,-0.77
2019-01-25T10:05:13.482Z,-0.68
2019-01-25T10:07:41.785Z,-0.58
2019-01-25T10:10:10.525Z,-3.20
2019-01-25T10:12:43.230Z,-0.54
2019-01-25T10:15:12.110Z,-0.55
2019-01-25T10:17:40.378Z,-0.44
2019-01-25T10:20:10.389Z,-0.28
2019-01-25T10:22:38.668Z,-0.19
2019-01-25T10:25:09.983Z,-0.13
2019-01-25T10:27:38.254Z,-0.19
2019-01-25T10:30:18.115Z,-0.15
2019-01-25T10:32:46.417Z,-0.06
2019-01-25T10:35:14.700Z,-0.04
2019-01-25T10:37:42.972Z,-0.02
2019-01-25T10:40:21.303Z,0.02
2019-01-25T10:42:53.153Z,0.07
2019-01-25T10:45:28.924Z,0.13
2019-01-25T10:47:57.255Z,0.23
2019-01-25T10:50:25.527Z,0.36
2019-01-25T10:52:53.807Z,0.43
2019-01-25T10:55:22.099Z,0.53
2019-01-25T10:57:50.544Z,0.63
2019-01-25T11:00:20.520Z,0.71
2019-01-25T11:02:48.783Z,0.79
2019-01-25T11:05:19.739Z,0.81
2019-01-25T11:07:48.126Z,0.84
2019-01-25T11:10:16.451Z,0.84
2019-01-25T11:12:44.735Z,0.88
2019-01-25T11:15:16.033Z,0.86
2019-01-25T11:17:44.470Z,0.76
2019-01-25T11:20:19.790Z,0.72
2019-01-25T11:22:48.129Z,0.83
2019-01-25T11:25:22.310Z,0.80
2019-01-25T11:27:51.749Z,0.85
2019-01-25T11:30:22.807Z,0.84
2019-01-25T11:32:53.999Z,0.78
2019-01-25T11:35:23.922Z,0.77
2019-01-25T11:37:52.388Z,0.77
2019-01-25T11:40:36.114Z,0.52
2019-01-25T11:43:08.855Z,0.44
2019-01-25T11:45:34.814Z,0.25
2019-01-25T11:48:03.308Z,0.21
2019-01-25T11:50:31.683Z,0.09
2019-01-25T11:52:59.987Z,0.10
2019-01-25T11:55:28.434Z,0.08
2019-01-25T11:57:56.921Z,0.15
2019-01-25T12:00:29.652Z,0.03
2019-01-25T12:02:59.586Z,0.10
2019-01-25T12:05:27.867Z,0.03
2019-01-25T12:07:56.203Z,0.08
2019-01-25T12:10:29.241Z,0.06
2019-01-25T12:12:57.712Z,-0.06
2019-01-25T12:15:26.112Z,0.06
2019-01-25T12:17:57.654Z,0.22
2019-01-25T12:20:31.303Z,0.31
2019-01-25T12:22:59.757Z,0.40
2019-01-25T12:25:28.277Z,0.46
2019-01-25T12:27:56.715Z,0.48
2019-01-25T12:30:37.773Z,0.51
2019-01-25T12:33:06.343Z,0.42
2019-01-25T12:35:36.788Z,0.30
2019-01-25T12:38:05.218Z,0.34
2019-01-25T12:40:33.954Z,0.38
2019-01-25T12:43:02.224Z,0.24
2019-01-25T12:45:31.533Z,0.24
2019-01-25T12:47:59.788Z,0.31
2019-01-25T12:50:39.022Z,0.30
2019-01-25T12:53:09.431Z,0.29
2019-01-25T12:55:37.691Z,0.25
2019-01-25T12:58:06.130Z,0.22
2019-01-25T13:00:34.394Z,0.24
2019-01-25T13:03:02.677Z,0.32
2019-01-25T13:05:30.950Z,0.37
2019-01-25T13:07:59.209Z,0.36
2019-01-25T13:10:28.206Z,0.54
2019-01-25T13:12:56.543Z,0.69
2019-01-25T13:15:24.801Z,0.85
2019-01-25T13:17:53.062Z,0.89
2019-01-25T13:20:26.735Z,0.97
2019-01-25T13:22:55.065Z,1.11
2019-01-25T13:25:23.329Z,1.14
2019-01-25T13:27:51.585Z,1.22
2019-01-25T13:30:22.392Z,0.92
2019-01-25T13:32:50.660Z,0.82
2019-01-25T13:35:19.163Z,0.92
2019-01-25T13:37:47.462Z,-0.88
2019-01-25T13:40:20.714Z,0.97
2019-01-25T13:42:49.095Z,1.04
2019-01-25T13:45:18.774Z,0.96
2019-01-25T13:47:47.311Z,1.01
2019-01-25T13:50:21.515Z,1.00
2019-01-25T13:52:49.786Z,0.88
2019-01-25T13:55:18.056Z,0.89
2019-01-25T13:57:46.389Z,0.89
2019-01-25T14:00:20.215Z,0.77
2019-01-25T14:02:48.472Z,0.66
2019-01-25T14:05:16.743Z,0.61
2019-01-25T14:07:45.014Z,0.53
2019-01-25T14:10:19.550Z,0.41
2019-01-25T14:12:47.826Z,0.35
2019-01-25T14:15:16.102Z,0.27
2019-01-25T14:17:44.496Z,0.06
2019-01-25T14:20:23.226Z,-3.81
2019-01-25T14:22:48.470Z,0.05
2019-01-25T14:25:16.967Z,0.10
2019-01-25T14:27:45.271Z,0.06
2019-01-25T14:30:34.734Z,0.00
2019-01-25T14:33:03.073Z,-0.18
2019-01-25T14:35:31.483Z,-0.27
2019-01-25T14:37:59.910Z,-0.29
2019-01-25T14:40:28.190Z,-0.32
2019-01-25T14:42:56.563Z,-0.39
2019-01-25T14:45:24.960Z,-0.42
2019-01-25T14:47:54.922Z,-0.48
2019-01-25T14:50:26.300Z,-0.51
2019-01-25T14:52:54.707Z,-0.53
2019-01-25T14:55:23.194Z,-0.57
2019-01-25T14:57:51.503Z,-2.51
2019-01-25T15:00:19.795Z,-0.66
2019-01-25T15:02:48.089Z,-0.69
2019-01-25T15:05:17.724Z,-0.75
2019-01-25T15:07:46.085Z,-0.75
2019-01-25T15:10:16.983Z,-0.74
2019-01-25T15:12:45.576Z,-0.79
2019-01-25T15:15:14.797Z,-0.82
2019-01-25T15:17:43.104Z,-0.95
2019-01-25T15:20:17.053Z,-1.03
2019-01-25T15:22:45.413Z,-1.02
2019-01-25T15:25:13.780Z,-1.04
2019-01-25T15:27:42.994Z,-1.08
2019-01-25T15:30:14.564Z,-1.08
2019-01-25T15:32:42.810Z,-1.06
2019-01-25T15:35:12.829Z,-1.06
2019-01-25T15:37:41.090Z,-1.08
2019-01-25T15:40:12.016Z,-1.15
2019-01-25T15:42:40.325Z,-1.20
2019-01-25T15:45:13.461Z,-1.24
2019-01-25T15:47:41.730Z,-1.23
2019-01-25T15:50:23.844Z,-1.22
2019-01-25T15:52:52.126Z,-1.24
2019-01-25T15:55:20.641Z,-1.31
2019-01-25T15:57:48.920Z,-1.32
2019-01-25T16:00:25.250Z,-1.30
2019-01-25T16:02:53.569Z,-1.28
2019-01-25T16:05:22.723Z,-1.27
2019-01-25T16:07:50.990Z,-1.30
2019-01-25T16:10:21.705Z,-1.32
2019-01-25T16:12:50.322Z,-1.35
2019-01-25T16:15:20.739Z,-1.34
2019-01-25T16:17:49.034Z,-1.38
2019-01-25T16:20:18.633Z,-1.43
2019-01-25T16:22:48.102Z,-1.44
2019-01-25T16:25:21.674Z,-1.45
2019-01-25T16:27:49.974Z,-1.43
2019-01-25T16:30:23.652Z,-1.44
2019-01-25T16:32:51.932Z,-1.45
2019-01-25T16:35:20.213Z,-1.44
2019-01-25T16:37:48.611Z,-1.44
2019-01-25T16:40:22.211Z,-1.46
2019-01-25T16:42:50.469Z,-1.50
2019-01-25T16:45:30.951Z,-1.54
2019-01-25T16:47:59.252Z,-1.56
2019-01-25T16:50:27.593Z,-1.57
2019-01-25T16:52:55.905Z,-1.57
2019-01-25T16:55:24.209Z,-1.56
2019-01-25T16:57:52.489Z,-1.57
2019-01-25T17:00:29.140Z,-1.56
2019-01-25T17:02:57.431Z,-1.56
2019-01-25T17:05:25.751Z,-1.57
2019-01-25T17:07:54.081Z,-1.53
2019-01-25T17:10:22.372Z,-1.55
2019-01-25T17:12:50.726Z,-1.56
2019-01-25T17:15:19.014Z,-1.54
2019-01-25T17:17:47.287Z,-1.53
2019-01-25T17:20:21.362Z,-1.54
2019-01-25T17:22:47.988Z,-1.57
2019-01-25T17:25:16.310Z,-1.58
2019-01-25T17:27:44.719Z,-1.61
2019-01-25T17:30:24.960Z,-2.32
2019-01-25T17:32:54.676Z,-1.68
2019-01-25T17:35:22.935Z,-1.69
2019-01-25T17:37:51.238Z,-1.67
2019-01-25T17:40:22.726Z,-1.66
2019-01-25T17:42:50.980Z,-1.64
2019-01-25T17:45:19.297Z,-1.62
2019-01-25T17:47:47.554Z,-1.58
2019-01-25T17:50:16.280Z,-1.56
2019-01-25T17:52:44.561Z,-1.54
2019-01-25T17:55:15.225Z,-1.50
2019-01-25T17:57:43.521Z,-1.47
2019-01-25T18:00:37.350Z,-1.47
2019-01-25T18:03:10.518Z,-1.48
2019-01-25T18:05:38.814Z,-1.45
2019-01-25T18:08:07.097Z,-1.46
2019-01-25T18:10:35.386Z,-1.48
2019-01-25T18:13:03.678Z,-1.50
2019-01-25T18:15:33.155Z,-1.51
2019-01-25T18:18:01.494Z,-1.51
2019-01-25T18:20:29.843Z,-1.52
2019-01-25T18:22:58.139Z,-1.54
2019-01-25T18:25:32.341Z,-1.62
2019-01-25T18:28:03.771Z,-1.64
2019-01-25T18:30:35.487Z,-1.63
2019-01-25T18:33:03.830Z,-1.62
2019-01-25T18:35:32.100Z,-1.59
2019-01-25T18:38:00.397Z,-1.57
2019-01-25T18:40:28.658Z,-1.54
2019-01-25T18:42:56.915Z,-1.56
2019-01-25T18:45:25.184Z,-1.50
2019-01-25T18:47:53.447Z,-1.49
2019-01-25T18:50:21.714Z,-1.47
2019-01-25T18:52:50.005Z,-1.45
2019-01-25T18:55:21.207Z,-1.45
2019-01-25T18:57:49.467Z,-1.43
2019-01-25T19:00:19.476Z,-1.45
2019-01-25T19:02:47.750Z,-1.44
2019-01-25T19:05:16.043Z,-1.47
2019-01-25T19:07:44.436Z,-1.48
2019-01-25T19:10:18.591Z,-1.48
2019-01-25T19:12:46.859Z,-1.49
2019-01-25T19:15:18.132Z,-1.55
2019-01-25T19:17:46.405Z,-1.55
2019-01-25T19:20:15.626Z,-1.60
2019-01-25T19:22:43.910Z,-1.64
2019-01-25T19:25:12.252Z,-1.65
2019-01-25T19:27:40.516Z,-1.68
2019-01-25T19:30:18.142Z,-1.73
2019-01-25T19:32:46.413Z,-1.75
2019-01-25T19:35:14.936Z,-1.73
2019-01-25T19:37:43.205Z,-1.66
2019-01-25T19:40:14.795Z,-1.61
2019-01-25T19:42:43.054Z,-1.59
2019-01-25T19:45:12.263Z,-1.61
2019-01-25T19:47:40.508Z,-1.61
2019-01-25T19:50:14.296Z,-1.60
2019-01-25T19:52:42.673Z,-1.62
2019-01-25T19:55:16.914Z,-1.56
2019-01-25T19:57:45.238Z,-1.48
2019-01-25T20:00:17.023Z,-1.43
2019-01-25T20:02:45.454Z,-1.38
2019-01-25T20:05:20.197Z,-1.38
2019-01-25T20:07:48.552Z,-1.33
2019-01-25T20:10:16.981Z,-1.33
2019-01-25T20:12:45.383Z,-1.37
2019-01-25T20:15:19.489Z,-1.36
2019-01-25T20:17:46.812Z,-1.38
2019-01-25T20:20:17.817Z,-1.36
2019-01-25T20:22:46.314Z,-1.37
2019-01-25T20:25:14.576Z,-1.30
2019-01-25T20:27:42.837Z,-1.29
2019-01-25T20:30:23.059Z,-1.29
2019-01-25T20:32:51.340Z,-1.28
2019-01-25T20:35:22.063Z,-1.29
2019-01-25T20:37:50.334Z,-1.28
2019-01-25T20:40:18.677Z,-1.28
2019-01-25T20:42:47.928Z,-1.30
2019-01-25T20:45:28.223Z,-1.26
2019-01-25T20:47:56.519Z,-1.25
2019-01-25T20:50:29.472Z,-1.22
2019-01-25T20:52:57.794Z,-1.21
2019-01-25T20:55:26.369Z,-1.19
2019-01-25T20:57:55.375Z,-1.16
2019-01-25T21:00:26.953Z,-1.16
2019-01-25T21:02:55.213Z,-1.17
2019-01-25T21:05:23.502Z,-1.19
2019-01-25T21:07:51.765Z,-1.19
2019-01-25T21:10:22.735Z,-1.18
2019-01-25T21:12:51.054Z,-1.16
2019-01-25T21:15:24.086Z,-1.17
2019-01-25T21:17:52.498Z,-1.17
2019-01-25T21:20:26.381Z,-1.17
2019-01-25T21:22:54.656Z,-1.16
2019-01-25T21:25:22.956Z,-1.17
2019-01-25T21:27:51.256Z,-1.19
2019-01-25T21:30:31.399Z,-1.16
2019-01-25T21:32:59.693Z,-1.11
2019-01-25T21:35:27.968Z,-1.09
2019-01-25T21:37:56.318Z,-1.09
2019-01-25T21:40:29.658Z,-1.07
2019-01-25T21:42:58.288Z,-2.78
2019-01-25T21:45:28.750Z,-1.08
2019-01-25T21:47:57.109Z,-2.45
2019-01-25T21:50:27.818Z,-1.08
2019-01-25T21:52:56.116Z,-1.07
2019-01-25T21:55:24.377Z,-1.04
2019-01-25T21:57:52.681Z,-1.02
2019-01-25T22:00:23.694Z,-1.04
2019-01-25T22:02:51.956Z,-1.03
2019-01-25T22:05:20.417Z,-1.00
2019-01-25T22:07:48.700Z,-0.98
2019-01-25T22:10:22.387Z,-0.96
2019-01-25T22:12:50.668Z,-0.95
2019-01-25T22:15:20.322Z,-0.89
2019-01-25T22:17:48.947Z,-0.87
2019-01-25T22:20:22.795Z,-0.84
2019-01-25T22:22:51.073Z,-0.80
2019-01-25T22:25:19.366Z,-0.75
2019-01-25T22:27:49.560Z,-0.74
2019-01-25T22:30:19.962Z,-0.71
2019-01-25T22:32:48.235Z,-0.75
2019-01-25T22:35:16.521Z,-0.75
2019-01-25T22:37:44.933Z,-0.74
2019-01-25T22:40:21.430Z,-0.72
2019-01-25T22:42:49.722Z,-0.72
2019-01-25T22:45:20.374Z,-0.69
2019-01-25T22:47:48.723Z,-0.66
2019-01-25T22:50:19.886Z,-0.69
2019-01-25T22:52:48.238Z,-0.67
2019-01-25T22:55:18.281Z,-0.71
2019-01-25T22:57:46.678Z,-0.73
2019-01-25T23:00:25.700Z,-0.77
2019-01-25T23:02:54.265Z,-0.78
2019-01-25T23:05:40.270Z,-0.77
2019-01-25T23:08:08.584Z,-0.78
2019-01-25T23:10:36.823Z,-0.79
2019-01-25T23:13:05.097Z,-0.79
2019-01-25T23:15:33.354Z,-0.78
2019-01-25T23:18:01.659Z,-0.79
2019-01-25T23:20:29.932Z,-0.79
2019-01-25T23:22:58.187Z,-0.76
2019-01-25T23:25:26.460Z,-0.76
2019-01-25T23:27:54.716Z,-0.79
2019-01-25T23:30:23.028Z,-0.81
2019-01-25T23:32:51.294Z,-0.82
2019-01-25T23:35:19.557Z,-0.81
2019-01-25T23:37:47.833Z,-0.81
2019-01-25T23:40:16.111Z,-0.77
2019-01-25T23:42:44.468Z,-0.76
2019-01-25T23:45:12.844Z,-0.75
2019-01-25T23:47:41.225Z,-0.75
2019-01-25T23:50:10.048Z,-0.74
2019-01-25T23:52:38.303Z,-0.71
2019-01-25T23:55:07.268Z,-0.69
2019-01-25T23:57:35.849Z,-0.67
